Time;durP1;ratioP1;P1;durP2;ratioP2;P2;SDS_P1;SDS_P2;PMS_P1;PMS_P2;Temp;Humidity;BMP_temperature;BMP_pressure;BME280_temperature;BME280_humidity;BME280_pressure;Samples;Min_cycle;Max_cycle;Signal;HPM_P1;HPM_P2
2023/03/24 00:00:20;;;;;;;10.07;4.38;;;11.40;99.90;;;;;;5049637;28;20045;-63
2023/03/24 00:02:47;;;;;;;11.80;3.63;;;11.50;99.90;;;;;;5048829;28;20052;-63
2023/03/24 00:05:17;;;;;;;9.82;4.10;;;11.50;99.90;;;;;;5049151;28;20043;-63
2023/03/24 00:07:44;;;;;;;8.65;3.95;;;11.50;99.90;;;;;;5048342;28;20045;-63
2023/03/24 00:10:16;;;;;;;7.65;4.05;;;11.40;99.90;;;;;;5049019;28;20033;-63
2023/03/24 00:12:44;;;;;;;7.78;4.28;;;11.40;99.90;;;;;;5049074;28;20466;-62
2023/03/24 00:15:12;;;;;;;6.55;3.72;;;11.40;99.90;;;;;;5049473;28;20120;-63
2023/03/24 00:17:38;;;;;;;9.85;4.20;;;11.40;99.90;;;;;;5048954;28;20049;-63
2023/03/24 00:20:12;;;;;;;7.90;3.53;;;11.40;99.90;;;;;;5048657;28;20405;-63
2023/03/24 00:22:41;;;;;;;9.73;3.25;;;11.40;99.90;;;;;;5049184;28;20516;-63
2023/03/24 00:25:09;;;;;;;7.72;3.83;;;11.40;99.90;;;;;;5050083;28;20437;-62
2023/03/24 00:27:35;;;;;;;12.20;4.03;;;11.40;99.90;;;;;;5049456;28;20061;-62
2023/03/24 00:30:04;;;;;;;7.22;3.40;;;11.30;99.90;;;;;;5048920;28;20041;-62
2023/03/24 00:32:29;;;;;;;6.07;3.17;;;11.30;99.90;;;;;;5049920;28;20473;-63
2023/03/24 00:34:55;;;;;;;8.40;3.30;;;11.30;99.90;;;;;;5049169;28;20090;-63
2023/03/24 00:37:21;;;;;;;7.57;3.15;;;11.40;99.90;;;;;;5048324;28;20045;-62
2023/03/24 00:39:46;;;;;;;10.43;3.35;;;11.40;99.90;;;;;;5045609;28;20383;-63
2023/03/24 00:42:12;;;;;;;7.43;3.60;;;11.40;99.90;;;;;;5047061;28;20052;-62
2023/03/24 00:44:38;;;;;;;9.27;3.17;;;11.40;99.90;;;;;;5052203;28;20051;-63
2023/03/24 00:47:04;;;;;;;8.13;3.53;;;11.30;99.90;;;;;;5052202;28;20045;-63
2023/03/24 00:50:05;;;;;;;4.05;2.00;;;11.40;99.90;;;;;;5050991;28;20036;-63
2023/03/24 00:52:24;;;;;;;6.03;2.47;;;11.30;99.90;;;;;;5049836;28;20056;-63
2023/03/24 00:54:56;;;;;;;8.38;3.85;;;11.40;99.90;;;;;;5052403;28;20049;-63
2023/03/24 00:57:24;;;;;;;6.93;3.65;;;11.30;99.90;;;;;;5051758;28;20050;-63
2023/03/24 00:59:53;;;;;;;8.07;3.17;;;11.40;99.90;;;;;;5051617;28;20049;-63
2023/03/24 01:02:21;;;;;;;6.25;3.47;;;11.40;99.90;;;;;;5053107;28;20119;-63
2023/03/24 01:04:53;;;;;;;7.53;2.90;;;11.40;99.90;;;;;;5051224;28;20076;-63
2023/03/24 01:07:20;;;;;;;7.60;3.20;;;11.40;99.90;;;;;;5033825;28;20099;-63
2023/03/24 01:09:56;;;;;;;8.68;4.40;;;11.40;99.90;;;;;;5048890;28;20041;-63
2023/03/24 01:12:23;;;;;;;7.60;4.00;;;11.40;99.90;;;;;;5051484;28;20036;-63
2023/03/24 01:14:49;;;;;;;7.63;3.42;;;11.40;99.90;;;;;;5051045;28;20040;-62
2023/03/24 01:17:14;;;;;;;7.07;4.28;;;11.40;99.90;;;;;;5049996;28;20509;-62
2023/03/24 01:19:41;;;;;;;6.22;3.15;;;11.40;99.90;;;;;;5050446;28;20052;-63
2023/03/24 01:22:07;;;;;;;8.68;4.38;;;11.40;99.90;;;;;;5050211;28;20120;-62
2023/03/24 01:24:33;;;;;;;6.78;3.58;;;11.40;99.90;;;;;;5033231;28;20137;-62
2023/03/24 01:26:58;;;;;;;7.53;3.58;;;11.40;99.90;;;;;;5051541;28;20037;-63
2023/03/24 01:29:24;;;;;;;6.88;3.38;;;11.40;99.90;;;;;;5050372;28;20069;-63
2023/03/24 01:31:50;;;;;;;7.20;2.90;;;11.40;99.90;;;;;;5049883;28;20052;-62
2023/03/24 01:34:16;;;;;;;8.65;3.92;;;11.40;99.90;;;;;;5050375;28;20048;-63
2023/03/24 01:36:42;;;;;;;6.97;3.33;;;11.40;99.90;;;;;;5051306;28;20045;-62
2023/03/24 01:39:08;;;;;;;5.63;3.17;;;11.50;99.90;;;;;;5049473;28;20124;-62
2023/03/24 01:41:37;;;;;;;5.97;3.67;;;11.50;99.90;;;;;;5050576;28;20044;-63
2023/03/24 01:44:41;;;;;;;8.30;3.83;;;11.50;99.90;;;;;;5050014;28;20057;-62
2023/03/24 01:47:07;;;;;;;4.40;2.45;;;11.50;99.90;;;;;;5025903;28;20038;-63
2023/03/24 01:49:40;;;;;;;6.47;3.28;;;11.50;99.90;;;;;;5025574;28;20104;-63
2023/03/24 01:52:12;;;;;;;6.60;3.65;;;11.50;99.90;;;;;;4991997;28;20108;-63
2023/03/24 01:54:46;;;;;;;5.75;3.53;;;11.50;99.90;;;;;;4992276;28;20049;-63
2023/03/24 01:57:19;;;;;;;7.32;3.30;;;11.50;99.90;;;;;;5025705;28;20111;-62
2023/03/24 01:59:48;;;;;;;5.47;3.25;;;11.50;99.90;;;;;;4992171;28;20111;-63
2023/03/24 02:02:16;;;;;;;8.43;3.13;;;11.60;99.90;;;;;;5025489;28;20184;-62
2023/03/24 02:04:45;;;;;;;6.50;3.30;;;11.60;99.90;;;;;;5025173;28;20491;-62
2023/03/24 02:07:33;;;;;;;4.40;2.42;;;11.60;99.90;;;;;;5008131;28;20038;-62
2023/03/24 02:10:08;;;;;;;6.82;3.42;;;11.60;99.90;;;;;;5008716;28;20049;-62
2023/03/24 02:12:35;;;;;;;3.75;2.13;;;11.60;99.90;;;;;;4975595;28;20128;-62
2023/03/24 02:15:02;;;;;;;9.38;3.85;;;11.60;99.90;;;;;;4975948;28;20045;-62
2023/03/24 02:17:50;;;;;;;5.65;2.80;;;11.60;99.90;;;;;;5022606;28;20080;-63
2023/03/24 02:20:53;;;;;;;7.97;3.40;;;11.60;99.90;;;;;;5049992;28;20048;-62
2023/03/24 02:23:22;;;;;;;6.50;4.00;;;11.60;99.90;;;;;;5048997;28;20060;-63
2023/03/24 02:26:26;;;;;;;10.02;3.70;;;11.60;99.90;;;;;;5049142;28;20128;-62
2023/03/24 02:28:54;;;;;;;5.88;3.85;;;11.60;99.90;;;;;;5047643;28;20397;-63
2023/03/24 02:31:32;;;;;;;6.95;3.80;;;11.60;99.90;;;;;;5049003;28;20047;-63
2023/03/24 02:34:26;;;;;;;7.07;3.08;;;11.60;99.90;;;;;;5049713;28;20045;-63
2023/03/24 02:37:07;;;;;;;7.32;4.57;;;11.70;99.90;;;;;;5049088;28;20528;-63
2023/03/24 02:39:36;;;;;;;9.27;4.20;;;11.70;99.90;;;;;;5050237;28;20285;-63
2023/03/24 02:42:11;;;;;;;9.35;4.95;;;11.60;99.90;;;;;;5048304;28;20045;-63
2023/03/24 02:45:07;;;;;;;6.70;4.30;;;11.70;99.90;;;;;;5050196;28;20485;-63
2023/03/24 02:47:54;;;;;;;7.38;5.22;;;11.70;99.90;;;;;;5028944;28;20056;-63
2023/03/24 02:50:29;;;;;;;7.38;4.93;;;11.70;99.90;;;;;;5049263;28;20040;-62
2023/03/24 02:53:14;;;;;;;9.25;5.00;;;11.70;99.90;;;;;;5048763;28;20041;-62
2023/03/24 02:55:56;;;;;;;11.88;5.65;;;11.70;99.90;;;;;;5049540;28;20421;-63
2023/03/24 02:58:26;;;;;;;9.82;5.85;;;11.60;99.90;;;;;;5048745;28;20041;-62
2023/03/24 03:01:07;;;;;;;9.55;5.95;;;11.70;99.90;;;;;;5048876;28;20053;-62
2023/03/24 03:03:41;;;;;;;10.57;6.47;;;11.70;99.90;;;;;;5047978;28;20040;-62
2023/03/24 03:06:26;;;;;;;8.90;6.50;;;11.60;99.90;;;;;;5048020;28;20497;-62
2023/03/24 03:08:54;;;;;;;5.88;4.90;;;11.60;99.90;;;;;;5049265;28;20029;-62
2023/03/24 03:11:21;;;;;;;7.25;4.47;;;11.70;99.90;;;;;;5049756;28;20045;-62
2023/03/24 03:14:12;;;;;;;6.20;4.68;;;11.60;99.90;;;;;;5049622;28;20044;-62
2023/03/24 03:16:45;;;;;;;5.72;4.80;;;11.60;99.90;;;;;;5041583;28;20143;-62
2023/03/24 03:19:18;;;;;;;7.13;4.60;;;11.60;99.90;;;;;;5049663;28;20442;-62
2023/03/24 03:21:46;;;;;;;11.05;4.35;;;11.50;99.90;;;;;;5049582;28;20096;-62
2023/03/24 03:24:25;;;;;;;7.57;3.80;;;11.50;99.90;;;;;;5047655;28;20064;-63
2023/03/24 03:26:57;;;;;;;4.95;3.17;;;11.40;99.90;;;;;;5048241;28;20045;-63
2023/03/24 03:29:27;;;;;;;10.85;3.65;;;11.40;99.90;;;;;;5049535;28;20429;-62
2023/03/24 03:32:06;;;;;;;5.07;2.25;;;11.30;99.90;;;;;;5047616;28;20110;-62
2023/03/24 03:34:44;;;;;;;7.60;2.45;;;11.20;99.90;;;;;;5049687;28;20045;-62
2023/03/24 03:37:25;;;;;;;7.75;2.65;;;11.10;99.90;;;;;;5047512;28;20053;-63
2023/03/24 03:40:07;;;;;;;7.38;2.35;;;11.10;99.90;;;;;;5048053;28;20052;-63
2023/03/24 03:42:34;;;;;;;12.38;2.75;;;11.00;99.90;;;;;;5048133;28;20049;-63
2023/03/24 03:45:00;;;;;;;12.43;2.80;;;10.90;99.90;;;;;;5047394;28;20060;-63
2023/03/24 03:47:26;;;;;;;7.90;2.40;;;10.90;99.90;;;;;;5049517;28;20040;-62
2023/03/24 03:49:52;;;;;;;8.70;2.08;;;10.80;99.90;;;;;;5048023;28;20128;-63
2023/03/24 03:52:18;;;;;;;9.93;2.83;;;10.80;99.90;;;;;;5048780;28;20044;-63
2023/03/24 03:54:44;;;;;;;6.45;2.30;;;10.70;99.90;;;;;;5049249;28;20041;-63
2023/03/24 03:57:12;;;;;;;6.28;2.05;;;10.70;99.90;;;;;;5047904;28;20103;-63
2023/03/24 03:59:39;;;;;;;10.88;2.40;;;10.70;99.90;;;;;;5048885;28;20681;-63
2023/03/24 04:02:36;;;;;;;8.05;2.50;;;10.60;99.90;;;;;;5048949;28;20060;-63
2023/03/24 04:05:16;;;;;;;8.40;1.90;;;10.60;99.90;;;;;;5048401;28;20478;-63
2023/03/24 04:08:15;;;;;;;14.00;2.97;;;10.50;99.90;;;;;;5050618;28;20115;-63
2023/03/24 04:11:12;;;;;;;9.87;2.10;;;10.50;99.90;;;;;;5050359;28;20057;-63
2023/03/24 04:13:44;;;;;;;11.13;2.70;;;10.50;99.90;;;;;;5049491;28;20045;-63
2023/03/24 04:16:22;;;;;;;14.13;2.33;;;10.40;99.90;;;;;;5049497;28;20045;-63
2023/03/24 04:19:02;;;;;;;10.93;2.40;;;10.40;99.90;;;;;;5053618;28;20386;-63
2023/03/24 04:21:41;;;;;;;11.60;2.47;;;10.30;99.90;;;;;;5052903;28;20040;-63
2023/03/24 04:24:34;;;;;;;10.82;2.33;;;10.30;99.90;;;;;;5052781;28;20413;-63
2023/03/24 04:27:37;;;;;;;8.10;2.25;;;10.20;99.90;;;;;;5052119;28;20044;-63
2023/03/24 04:30:24;;;;;;;8.40;2.05;;;10.20;99.90;;;;;;5035951;28;20072;-63
2023/03/24 04:33:03;;;;;;;9.60;2.45;;;10.00;99.90;;;;;;5052013;28;20563;-63
2023/03/24 04:35:42;;;;;;;10.00;2.53;;;9.90;99.90;;;;;;5052554;28;20041;-63
2023/03/24 04:38:16;;;;;;;14.32;3.65;;;9.90;99.90;;;;;;5052563;28;20048;-64
2023/03/24 04:40:48;;;;;;;12.20;2.75;;;9.90;99.90;;;;;;5053093;28;20432;-63
2023/03/24 04:43:18;;;;;;;14.77;4.22;;;9.90;99.90;;;;;;5035834;28;20033;-63
2023/03/24 04:45:48;;;;;;;12.55;2.85;;;9.90;99.90;;;;;;5053823;28;20044;-63
2023/03/24 04:48:16;;;;;;;;;;;9.90;99.90;;;;;;5053427;28;20124;-64
2023/03/24 04:50:47;;;;;;;7.03;2.25;;;9.90;99.90;;;;;;5052429;28;19970;-64
2023/03/24 04:53:13;;;;;;;12.65;3.30;;;9.90;99.90;;;;;;5053578;28;20451;-63
2023/03/24 04:55:39;;;;;;;13.00;3.03;;;9.90;99.90;;;;;;5051821;28;20056;-63
2023/03/24 04:58:04;;;;;;;14.88;3.10;;;9.90;99.90;;;;;;5052303;28;20433;-63
2023/03/24 05:00:30;;;;;;;12.68;3.03;;;9.90;99.90;;;;;;5053515;28;20121;-64
2023/03/24 05:02:56;;;;;;;10.52;2.47;;;9.80;99.90;;;;;;5051585;28;20497;-64
2023/03/24 05:05:22;;;;;;;9.43;2.63;;;9.80;99.90;;;;;;5053290;28;20417;-64
2023/03/24 05:07:48;;;;;;;19.92;3.05;;;9.70;99.90;;;;;;5051393;28;20191;-63
2023/03/24 05:10:15;;;;;;;19.50;3.63;;;9.60;99.90;;;;;;5051855;28;20549;-63
2023/03/24 05:12:41;;;;;;;10.90;2.30;;;9.50;99.90;;;;;;5051803;28;20059;-64
2023/03/24 05:15:07;;;;;;;11.82;2.17;;;9.40;99.90;;;;;;5050196;28;20044;-64
2023/03/24 05:17:33;;;;;;;12.50;2.60;;;9.30;99.90;;;;;;5050583;28;20084;-64
2023/03/24 05:19:59;;;;;;;16.45;2.83;;;9.30;99.90;;;;;;5051748;28;20092;-64
2023/03/24 05:22:26;;;;;;;6.70;2.00;;;9.30;99.90;;;;;;5050897;28;20064;-64
2023/03/24 05:24:51;;;;;;;12.75;3.00;;;9.20;99.90;;;;;;5051628;28;20597;-64
2023/03/24 05:27:17;;;;;;;9.30;2.53;;;9.20;99.90;;;;;;5050602;28;20120;-64
2023/03/24 05:29:43;;;;;;;8.10;3.05;;;9.10;99.90;;;;;;5049238;28;20041;-64
2023/03/24 05:32:09;;;;;;;10.32;2.60;;;9.10;99.90;;;;;;5051684;28;20090;-64
2023/03/24 05:34:35;;;;;;;13.93;3.53;;;9.00;99.90;;;;;;5050236;28;20502;-64
2023/03/24 05:37:00;;;;;;;11.35;2.42;;;9.00;99.90;;;;;;5050862;28;20041;-64
2023/03/24 05:39:26;;;;;;;16.95;2.72;;;9.00;99.90;;;;;;5050186;28;20068;-64
2023/03/24 05:41:52;;;;;;;10.38;2.20;;;9.00;99.90;;;;;;5050396;28;20044;-64
2023/03/24 05:44:18;;;;;;;11.13;2.53;;;9.00;99.90;;;;;;5049318;28;20045;-64
2023/03/24 05:46:44;;;;;;;14.70;2.45;;;9.00;99.90;;;;;;5049778;28;20044;-64
2023/03/24 05:49:10;;;;;;;8.65;2.85;;;9.00;99.90;;;;;;5050251;28;20481;-64
2023/03/24 05:51:36;;;;;;;9.65;2.20;;;9.00;99.90;;;;;;5050483;28;20040;-64
2023/03/24 05:54:04;;;;;;;13.18;2.20;;;9.10;99.90;;;;;;5033234;28;20049;-64
2023/03/24 05:56:31;;;;;;;9.80;1.98;;;9.10;99.90;;;;;;5051298;28;20044;-64
2023/03/24 05:58:57;;;;;;;16.05;2.65;;;9.10;99.90;;;;;;5049191;28;20047;-64
2023/03/24 06:01:24;;;;;;;16.05;2.78;;;9.10;99.90;;;;;;5047795;28;20037;-64
2023/03/24 06:03:50;;;;;;;11.43;2.50;;;9.20;99.90;;;;;;5050209;28;20108;-64
2023/03/24 06:06:15;;;;;;;12.90;2.65;;;9.20;99.90;;;;;;5044631;28;20064;-64
2023/03/24 06:08:43;;;;;;;12.50;2.20;;;9.30;99.90;;;;;;5049687;28;20044;-64
2023/03/24 06:11:10;;;;;;;11.18;2.10;;;9.30;99.90;;;;;;5050346;28;20051;-64
2023/03/24 06:13:36;;;;;;;9.50;2.20;;;9.30;99.90;;;;;;5049621;28;20044;-64
2023/03/24 06:16:02;;;;;;;11.02;2.30;;;9.30;99.90;;;;;;5050660;28;20569;-64
2023/03/24 06:18:29;;;;;;;11.02;2.45;;;9.30;99.90;;;;;;5048968;28;20048;-65
2023/03/24 06:20:55;;;;;;;9.88;2.45;;;9.40;99.90;;;;;;5050584;28;20174;-65
2023/03/24 06:23:24;;;;;;;11.18;2.60;;;9.40;99.90;;;;;;5049016;28;20060;-65
2023/03/24 06:25:52;;;;;;;12.75;2.88;;;9.40;99.90;;;;;;5049876;28;20066;-64
2023/03/24 06:28:18;;;;;;;17.23;2.78;;;9.50;99.90;;;;;;5050440;28;20041;-65
2023/03/24 06:30:45;;;;;;;13.00;2.50;;;9.50;99.90;;;;;;5050186;28;20526;-65
2023/03/24 06:33:12;;;;;;;12.15;2.33;;;9.50;99.90;;;;;;5050875;28;20044;-64
2023/03/24 06:35:39;;;;;;;16.73;3.50;;;9.60;99.90;;;;;;5050500;28;20049;-65
2023/03/24 06:38:05;;;;;;;20.13;3.65;;;9.60;99.90;;;;;;5051578;28;20041;-64
2023/03/24 06:40:32;;;;;;;11.98;3.10;;;9.60;99.90;;;;;;5048727;28;20060;-63
2023/03/24 06:42:58;;;;;;;15.50;2.92;;;9.70;99.90;;;;;;5050260;28;20037;-64
2023/03/24 06:45:24;;;;;;;18.17;3.70;;;9.70;99.90;;;;;;5050120;28;20089;-64
2023/03/24 06:47:57;;;;;;;17.35;4.18;;;9.70;99.90;;;;;;5050639;28;20045;-64
2023/03/24 06:50:31;;;;;;;22.45;4.15;;;9.80;99.90;;;;;;5051261;28;20045;-64
2023/03/24 06:52:58;;;;;;;19.20;3.00;;;9.80;99.90;;;;;;5049583;28;20041;-64
2023/03/24 06:55:24;;;;;;;18.58;4.28;;;9.80;99.90;;;;;;5049887;28;20130;-63
2023/03/24 06:57:50;;;;;;;15.07;3.63;;;9.80;99.90;;;;;;5051210;28;20064;-64
2023/03/24 07:00:16;;;;;;;17.45;3.67;;;9.90;99.90;;;;;;5032505;28;20493;-64
2023/03/24 07:02:42;;;;;;;15.68;3.47;;;9.90;99.90;;;;;;5051114;28;20044;-64
2023/03/24 07:05:09;;;;;;;16.38;3.63;;;9.90;99.90;;;;;;5049645;28;20049;-65
2023/03/24 07:07:36;;;;;;;19.52;3.17;;;10.00;99.90;;;;;;5050451;28;20043;-64
2023/03/24 07:10:03;;;;;;;23.95;4.07;;;10.00;99.90;;;;;;5049092;28;20041;-64
2023/03/24 07:12:29;;;;;;;19.30;3.35;;;10.00;99.90;;;;;;5049899;28;20067;-65
2023/03/24 07:14:56;;;;;;;17.33;4.20;;;10.00;99.90;;;;;;5049100;28;20367;-65
2023/03/24 07:17:22;;;;;;;14.38;3.45;;;10.10;99.90;;;;;;5032967;28;20053;-63
2023/03/24 07:19:47;;;;;;;16.92;4.00;;;10.10;99.90;;;;;;5050696;28;20036;-64
2023/03/24 07:22:13;;;;;;;21.33;3.72;;;10.10;99.90;;;;;;5050013;28;20053;-65
2023/03/24 07:24:39;;;;;;;18.05;4.15;;;10.10;99.90;;;;;;5050753;28;20052;-64
2023/03/24 07:27:05;;;;;;;24.45;3.70;;;10.20;99.90;;;;;;5049178;28;20492;-65
2023/03/24 07:29:31;;;;;;;23.05;4.85;;;10.20;99.90;;;;;;5048721;28;20120;-65
2023/03/24 07:32:00;;;;;;;20.45;4.75;;;10.20;99.90;;;;;;5050331;28;20116;-65
2023/03/24 07:34:26;;;;;;;15.27;3.88;;;10.20;99.90;;;;;;5049338;28;20493;-65
2023/03/24 07:36:52;;;;;;;17.73;3.58;;;10.20;99.90;;;;;;5049012;28;20443;-65
2023/03/24 07:39:19;;;;;;;20.45;4.47;;;10.20;99.90;;;;;;5049507;28;20090;-64
2023/03/24 07:41:46;;;;;;;20.48;4.20;;;10.30;99.90;;;;;;5050021;28;20105;-65
2023/03/24 07:44:12;;;;;;;16.45;3.80;;;10.20;99.90;;;;;;5049022;28;20049;-65
2023/03/24 07:46:38;;;;;;;27.40;5.85;;;10.30;99.90;;;;;;5049467;28;20037;-65
2023/03/24 07:49:05;;;;;;;20.23;4.80;;;10.30;99.90;;;;;;5048527;28;20123;-65
2023/03/24 07:51:31;;;;;;;21.92;5.13;;;10.30;99.90;;;;;;5051657;28;20047;-65
2023/03/24 07:53:57;;;;;;;25.67;4.32;;;10.30;99.90;;;;;;5054461;28;20116;-64
2023/03/24 07:56:23;;;;;;;21.45;4.60;;;10.30;99.90;;;;;;5044412;28;20049;-64
2023/03/24 07:58:48;;;;;;;20.98;4.20;;;10.30;99.90;;;;;;5050094;28;20386;-64
2023/03/24 08:01:14;;;;;;;17.63;3.75;;;10.40;99.90;;;;;;5047543;28;20525;-64
2023/03/24 08:03:40;;;;;;;23.35;5.18;;;10.50;99.90;;;;;;5049207;28;20041;-64
2023/03/24 08:06:09;;;;;;;18.60;4.10;;;10.50;99.90;;;;;;5040998;28;20045;-64
2023/03/24 08:08:36;;;;;;;23.70;3.85;;;10.50;99.90;;;;;;5054206;28;20416;-64
2023/03/24 08:11:03;;;;;;;23.75;4.22;;;10.50;99.90;;;;;;5058199;28;20028;-64
2023/03/24 08:13:29;;;;;;;17.38;3.75;;;10.50;99.90;;;;;;5062048;28;20114;-64
2023/03/24 08:15:55;;;;;;;19.23;4.20;;;10.50;99.90;;;;;;5060664;28;20123;-64
2023/03/24 08:18:23;;;;;;;20.73;4.75;;;10.50;99.90;;;;;;5082153;28;20144;-64
2023/03/24 08:20:53;;;;;;;20.23;3.80;;;10.70;99.90;;;;;;5057874;28;20054;-64
2023/03/24 08:23:19;;;;;;;16.67;3.83;;;10.90;99.90;;;;;;5059293;28;20059;-64
2023/03/24 08:25:46;;;;;;;21.42;4.97;;;10.90;99.90;;;;;;5084880;28;20482;-64
2023/03/24 08:28:12;;;;;;;18.35;3.55;;;11.00;99.90;;;;;;5063315;28;20111;-64
2023/03/24 08:30:42;;;;;;;20.20;3.35;;;11.10;99.90;;;;;;5061326;28;20132;-64
2023/03/24 08:33:11;;;;;;;21.63;3.40;;;11.10;99.90;;;;;;5062480;28;20048;-64
2023/03/24 08:35:39;;;;;;;18.38;3.38;;;11.00;99.90;;;;;;5086625;28;20044;-64
2023/03/24 08:38:07;;;;;;;19.48;4.10;;;11.10;99.90;;;;;;5059064;28;20080;-65
2023/03/24 08:40:34;;;;;;;17.13;3.53;;;11.20;99.90;;;;;;5059113;28;20548;-64
2023/03/24 08:43:02;;;;;;;22.38;4.22;;;11.20;99.90;;;;;;5060463;28;20585;-64
2023/03/24 08:45:30;;;;;;;23.90;5.43;;;11.10;99.90;;;;;;5057742;28;20037;-64
2023/03/24 08:47:59;;;;;;;15.30;3.17;;;11.00;99.90;;;;;;5051889;28;20033;-64
2023/03/24 08:50:29;;;;;;;23.17;5.60;;;11.00;99.90;;;;;;5052659;28;20037;-64
2023/03/24 08:52:56;;;;;;;19.73;3.97;;;11.40;99.90;;;;;;5084457;28;20794;-64
2023/03/24 08:55:22;;;;;;;19.05;3.70;;;11.90;99.90;;;;;;5084898;28;20044;-64
2023/03/24 08:57:49;;;;;;;18.50;3.55;;;12.30;99.90;;;;;;5052425;28;20037;-65
2023/03/24 09:00:17;;;;;;;21.35;4.13;;;12.80;99.90;;;;;;5051862;28;20047;-65
2023/03/24 09:02:53;;;;;;;23.50;3.95;;;13.10;99.90;;;;;;5083759;28;20055;-65
2023/03/24 09:05:21;;;;;;;22.45;4.30;;;13.30;99.90;;;;;;5084388;28;20041;-65
2023/03/24 09:07:48;;;;;;;26.52;4.15;;;13.30;99.90;;;;;;5051506;28;20039;-65
2023/03/24 09:10:15;;;;;;;22.75;4.82;;;13.30;99.90;;;;;;5051227;28;20041;-64
2023/03/24 09:12:42;;;;;;;20.90;4.47;;;13.20;99.90;;;;;;5050220;28;20481;-65
2023/03/24 09:15:10;;;;;;;24.42;5.28;;;13.20;99.90;;;;;;5052231;28;20051;-65
2023/03/24 09:17:37;;;;;;;17.58;4.50;;;13.60;99.90;;;;;;5051097;28;20635;-65
2023/03/24 09:20:10;;;;;;;22.83;4.85;;;13.70;99.90;;;;;;5050072;28;20061;-65
2023/03/24 09:22:41;;;;;;;21.38;4.72;;;13.50;99.90;;;;;;5052153;28;20544;-65
2023/03/24 09:25:09;;;;;;;14.90;3.85;;;13.60;99.90;;;;;;5051443;28;20478;-65
2023/03/24 09:27:35;;;;;;;18.95;3.90;;;14.00;99.90;;;;;;5051017;28;20111;-65
2023/03/24 09:30:01;;;;;;;21.92;4.75;;;14.40;99.90;;;;;;5051285;28;20116;-65
2023/03/24 09:32:27;;;;;;;24.75;4.63;;;14.80;99.90;;;;;;5052581;28;20050;-65
2023/03/24 09:34:53;;;;;;;16.13;4.03;;;14.90;99.90;;;;;;5050639;28;20128;-65
2023/03/24 09:37:18;;;;;;;20.17;4.93;;;14.90;99.90;;;;;;5052633;28;20128;-65
2023/03/24 09:39:44;;;;;;;18.98;3.90;;;14.70;99.90;;;;;;5051441;28;20056;-65
2023/03/24 09:42:22;;;;;;;20.55;4.45;;;14.40;99.90;;;;;;5051964;28;20497;-65
2023/03/24 09:44:56;;;;;;;20.55;4.18;;;14.40;99.90;;;;;;5052181;28;20044;-65
2023/03/24 09:47:25;;;;;;;14.20;4.18;;;14.30;99.90;;;;;;5051002;28;20044;-65
2023/03/24 09:49:52;;;;;;;20.73;4.63;;;14.00;99.90;;;;;;5071097;28;20036;-65
2023/03/24 09:52:28;;;;;;;18.63;3.95;;;13.90;99.90;;;;;;5072249;28;20047;-65
2023/03/24 09:55:00;;;;;;;22.25;4.15;;;13.80;99.90;;;;;;5071592;28;20040;-65
2023/03/24 09:57:44;;;;;;;18.73;4.43;;;14.00;99.90;;;;;;5063413;28;20443;-65
2023/03/24 10:00:26;;;;;;;14.75;4.22;;;14.60;99.90;;;;;;5074244;28;20647;-65
2023/03/24 10:02:53;;;;;;;21.30;4.65;;;15.30;99.90;;;;;;5048930;28;20037;-65
2023/03/24 10:05:28;;;;;;;20.20;4.47;;;15.50;99.90;;;;;;5030675;28;20099;-65
2023/03/24 10:08:20;;;;;;;21.80;4.22;;;15.00;99.90;;;;;;5029560;28;20037;-65
2023/03/24 10:11:01;;;;;;;15.27;3.47;;;14.70;99.90;;;;;;5025855;28;20045;-65
2023/03/24 10:13:35;;;;;;;14.02;3.53;;;15.30;99.90;;;;;;5029539;28;20041;-65
2023/03/24 10:16:12;;;;;;;18.33;4.15;;;15.70;99.90;;;;;;5019965;28;20037;-66
2023/03/24 10:19:04;;;;;;;15.00;3.72;;;16.10;99.90;;;;;;5049136;28;20049;-66
2023/03/24 10:21:36;;;;;;;16.20;3.80;;;16.50;99.90;;;;;;5050579;28;20037;-67
2023/03/24 10:24:35;;;;;;;14.38;4.13;;;16.50;99.90;;;;;;5049555;28;20049;-67
2023/03/24 10:27:19;;;;;;;15.23;3.85;;;16.60;99.90;;;;;;5049279;28;20044;-67
2023/03/24 10:29:48;;;;;;;16.88;4.03;;;16.70;99.90;;;;;;5048722;28;20049;-67
2023/03/24 10:32:18;;;;;;;17.70;3.80;;;16.40;99.90;;;;;;5050153;28;20076;-67
2023/03/24 10:34:47;;;;;;;21.90;4.30;;;16.30;99.90;;;;;;5047740;28;20044;-67
2023/03/24 10:37:14;;;;;;;14.35;3.53;;;16.40;99.90;;;;;;5049659;28;20059;-66
2023/03/24 10:39:40;;;;;;;16.20;3.75;;;16.60;99.90;;;;;;5063942;28;20047;-67
2023/03/24 10:42:11;;;;;;;16.45;3.80;;;16.90;99.90;;;;;;5071151;28;20040;-67
2023/03/24 10:44:38;;;;;;;13.10;3.90;;;17.20;99.90;;;;;;5068538;28;20040;-67
2023/03/24 10:47:07;;;;;;;17.80;4.03;;;17.30;99.90;;;;;;5068854;28;20040;-67
2023/03/24 10:49:33;;;;;;;21.58;3.55;;;17.20;99.90;;;;;;5070005;28;20041;-67
2023/03/24 10:52:02;;;;;;;16.90;3.42;;;17.30;99.90;;;;;;5070427;28;20090;-66
2023/03/24 10:54:30;;;;;;;14.57;4.00;;;17.20;99.90;;;;;;5069644;28;20044;-67
2023/03/24 10:56:59;;;;;;;13.32;3.15;;;16.90;99.90;;;;;;5069405;28;20055;-67
2023/03/24 10:59:49;;;;;;;12.13;2.88;;;16.90;99.90;;;;;;5070289;28;20041;-67
2023/03/24 11:02:25;;;;;;;13.13;2.90;;;16.90;99.90;;;;;;5057471;28;20424;-67
2023/03/24 11:05:01;;;;;;;15.73;3.35;;;16.90;99.90;;;;;;5065704;28;20044;-67
2023/03/24 11:07:37;;;;;;;11.27;2.58;;;17.20;99.90;;;;;;5068557;28;20041;-68
2023/03/24 11:10:20;;;;;;;9.93;2.95;;;17.10;99.90;;;;;;5068944;28;20040;-68
2023/03/24 11:12:56;;;;;;;16.15;3.20;;;16.80;99.90;;;;;;5069023;28;20036;-67
2023/03/24 11:15:27;;;;;;;17.63;4.05;;;17.20;99.90;;;;;;5070803;28;20384;-68
2023/03/24 11:18:15;;;;;;;14.57;2.80;;;17.20;99.90;;;;;;5068479;28;20040;-68
2023/03/24 11:20:55;;;;;;;12.40;2.58;;;17.30;99.90;;;;;;5066412;28;20044;-68
2023/03/24 11:23:31;;;;;;;15.23;3.22;;;17.60;99.90;;;;;;5052747;28;20497;-68
2023/03/24 11:26:33;;;;;;;15.75;3.72;;;17.50;99.90;;;;;;5056524;28;20061;-67
2023/03/24 11:29:26;;;;;;;21.95;3.80;;;17.00;99.90;;;;;;5029146;28;20064;-67
2023/03/24 11:31:55;;;;;;;13.50;2.80;;;16.50;99.90;;;;;;5037020;28;20045;-68
2023/03/24 11:34:37;;;;;;;18.15;3.60;;;16.10;99.90;;;;;;5057697;28;20040;-68
2023/03/24 11:37:10;;;;;;;15.13;3.20;;;16.00;99.90;;;;;;5052353;28;21111;-68
2023/03/24 11:39:35;;;;;;;17.77;3.28;;;15.90;99.90;;;;;;5060984;28;20039;-68
2023/03/24 11:42:10;;;;;;;13.80;3.65;;;15.60;99.90;;;;;;5060704;28;20402;-68
2023/03/24 11:44:52;;;;;;;14.50;3.33;;;15.80;99.90;;;;;;5057157;28;20349;-68
2023/03/24 11:47:33;;;;;;;12.95;2.78;;;16.10;99.90;;;;;;5053442;28;20037;-68
2023/03/24 11:50:11;;;;;;;11.63;2.70;;;16.00;99.90;;;;;;5069226;28;20037;-68
2023/03/24 11:52:42;;;;;;;14.38;3.17;;;15.90;99.90;;;;;;5070532;28;20036;-68
2023/03/24 11:55:17;;;;;;;19.58;2.97;;;15.60;99.90;;;;;;5069680;28;20044;-67
2023/03/24 11:58:16;;;;;;;14.48;3.55;;;15.10;99.90;;;;;;5069137;28;20086;-68
2023/03/24 12:00:54;;;;;;;;;;;14.70;99.90;;;;;;5069769;28;20047;-67
2023/03/24 12:03:55;;;;;;;15.65;3.80;;;14.40;99.90;;;;;;5067861;28;19963;-67
2023/03/24 12:06:42;;;;;;;18.30;3.95;;;14.90;99.90;;;;;;5010101;28;20048;-70
2023/03/24 12:09:37;;;;;;;14.32;2.75;;;15.20;99.90;;;;;;5026073;28;20037;-67
2023/03/24 12:12:27;;;;;;;14.95;3.17;;;15.60;99.90;;;;;;5026003;28;20069;-68
2023/03/24 12:15:18;;;;;;;14.25;2.63;;;15.60;99.90;;;;;;5026023;28;20049;-67
2023/03/24 12:18:03;;;;;;;11.35;3.00;;;15.10;99.90;;;;;;4995220;28;20136;-67
2023/03/24 12:20:55;;;;;;;13.68;2.92;;;14.90;99.90;;;;;;5007960;28;20065;-67
2023/03/24 12:23:48;;;;;;;13.80;3.35;;;15.00;99.90;;;;;;4984446;28;20145;-67
2023/03/24 12:26:24;;;;;;;12.90;3.05;;;15.10;99.90;;;;;;5007878;28;20120;-67
2023/03/24 12:29:28;;;;;;;12.38;2.38;;;15.20;99.90;;;;;;5007237;28;20077;-67
2023/03/24 12:31:54;;;;;;;20.63;3.17;;;15.20;99.90;;;;;;4991631;28;20042;-67
2023/03/24 12:34:56;;;;;;;12.90;2.33;;;15.50;99.90;;;;;;5007449;28;20514;-67
2023/03/24 12:37:42;;;;;;;10.23;2.33;;;15.60;99.90;;;;;;5008041;28;20104;-67
2023/03/24 12:40:12;;;;;;;13.05;2.63;;;15.80;99.90;;;;;;5011736;28;20166;-67
2023/03/24 12:42:45;;;;;;;13.55;2.97;;;16.00;99.90;;;;;;5008088;28;20431;-67
2023/03/24 12:45:26;;;;;;;13.38;3.22;;;15.90;99.90;;;;;;5052218;28;20052;-67
2023/03/24 12:48:04;;;;;;;14.85;2.22;;;16.00;99.90;;;;;;5053286;28;20037;-68
2023/03/24 12:51:02;;;;;;;12.70;2.83;;;16.30;99.90;;;;;;5051785;28;20068;-69
2023/03/24 12:53:35;;;;;;;12.80;2.78;;;16.10;99.90;;;;;;5031758;28;20049;-68
2023/03/24 12:56:09;;;;;;;10.05;2.40;;;16.00;99.90;;;;;;5069503;28;20092;-67
2023/03/24 12:59:01;;;;;;;15.48;3.53;;;15.90;99.90;;;;;;5050558;28;20045;-66
2023/03/24 13:01:45;;;;;;;12.45;3.20;;;15.80;99.90;;;;;;5051886;28;20623;-68
2023/03/24 13:04:25;;;;;;;17.08;3.63;;;15.70;99.90;;;;;;5049698;28;20040;-68
2023/03/24 13:06:55;;;;;;;13.70;3.05;;;15.70;99.90;;;;;;5050654;28;20516;-68
2023/03/24 13:09:58;;;;;;;12.75;3.58;;;15.70;99.90;;;;;;5051572;28;20444;-67